< < Back
Terminal Aerodrome Forecast


Current Version              Previous Versions:   1  2  3  4  5  6  7  8  9  

Terminal Aerodrome Forecast

670
FTUS42 KFFC 181954 AAA
TAFPDK
TAF AMD
KPDK 181954Z 1820/1918 32005KT P6SM BKN060
     FM190100 31003KT P6SM SCT045 BKN150
     FM190900 00000KT P6SM SCT150
     FM191600 01004KT P6SM BKN150=



Latest METAR

123
SAUS70 KWBC 190000 RRC
MTRPDK
METAR KPDK 182353Z 29004KT 10SM FEW049 SCT100 08/00 A3012 RMK AO2 SLP212
T00830000 10117 20083 53006


USA.gov is the U.S. government's official web portal to all federal, state and local government web resources and services.